createdAt,value
2022-08-24T00:00:42.635Z,22.66
2022-08-24T00:01:42.635Z,22.66
2022-08-24T00:02:42.778Z,22.64
2022-08-24T00:03:42.672Z,22.63
2022-08-24T00:04:42.596Z,22.60
2022-08-24T00:05:42.581Z,22.59
2022-08-24T00:06:42.599Z,22.57
2022-08-24T00:07:42.594Z,22.57
2022-08-24T00:08:42.553Z,22.54
2022-08-24T00:09:42.560Z,22.51
2022-08-24T00:10:42.538Z,22.48
2022-08-24T00:11:42.540Z,22.45
2022-08-24T00:12:42.524Z,22.41
2022-08-24T00:13:42.500Z,22.39
2022-08-24T00:14:42.487Z,22.35
2022-08-24T00:15:42.475Z,22.31
2022-08-24T00:16:42.575Z,22.30
2022-08-24T00:17:42.481Z,22.30
2022-08-24T00:18:42.437Z,22.27
2022-08-24T00:19:42.431Z,22.21
2022-08-24T00:20:45.237Z,22.17
2022-08-24T00:21:42.415Z,22.14
2022-08-24T00:22:42.420Z,22.11
2022-08-24T00:23:42.392Z,22.09
2022-08-24T00:24:42.392Z,22.08
2022-08-24T00:25:42.394Z,22.08
2022-08-24T00:26:42.356Z,22.08
2022-08-24T00:27:42.363Z,22.06
2022-08-24T00:28:42.365Z,22.05
2022-08-24T00:29:42.334Z,22.06
2022-08-24T00:30:42.319Z,22.02
2022-08-24T00:31:42.322Z,22.02
2022-08-24T00:32:42.304Z,21.99
2022-08-24T00:33:42.283Z,21.99
2022-08-24T00:34:42.269Z,21.99
2022-08-24T00:35:42.262Z,21.96
2022-08-24T00:36:42.243Z,21.91
2022-08-24T00:37:42.255Z,21.89
2022-08-24T00:38:42.229Z,21.83
2022-08-24T00:39:42.276Z,21.77
2022-08-24T00:40:42.209Z,21.74
2022-08-24T00:41:42.197Z,21.71
2022-08-24T00:42:42.204Z,21.70
2022-08-24T00:43:42.167Z,21.71
2022-08-24T00:44:42.168Z,21.73
2022-08-24T00:45:42.265Z,21.73
2022-08-24T00:46:42.139Z,21.74
2022-08-24T00:47:42.143Z,21.75
2022-08-24T00:48:42.121Z,21.77
2022-08-24T00:49:42.107Z,21.75
2022-08-24T00:50:42.094Z,21.74
2022-08-24T00:51:42.086Z,21.71
2022-08-24T00:52:42.068Z,21.70
2022-08-24T00:53:42.123Z,21.70
2022-08-24T00:54:46.026Z,21.67
2022-08-24T00:55:42.058Z,21.66
2022-08-24T00:56:42.048Z,21.59
2022-08-24T00:57:42.027Z,21.59
2022-08-24T00:58:42.026Z,21.58
2022-08-24T00:59:41.998Z,21.55
2022-08-24T01:00:42.035Z,21.53
2022-08-24T01:01:42.087Z,21.51
2022-08-24T01:02:42.037Z,21.48
2022-08-24T01:03:41.968Z,21.48
2022-08-24T01:04:41.942Z,21.48
2022-08-24T01:05:41.933Z,21.46
2022-08-24T01:06:41.932Z,21.43
2022-08-24T01:07:41.906Z,21.40
2022-08-24T01:08:41.922Z,21.36
2022-08-24T01:09:41.881Z,21.34
2022-08-24T01:10:41.878Z,21.28
2022-08-24T01:11:41.863Z,21.26
2022-08-24T01:12:41.856Z,21.24
2022-08-24T01:13:41.863Z,21.24
2022-08-24T01:14:41.835Z,21.24
2022-08-24T01:15:41.838Z,21.22
2022-08-24T01:16:41.836Z,21.19
2022-08-24T01:17:41.789Z,21.18
2022-08-24T01:18:41.815Z,21.15
2022-08-24T01:19:41.771Z,21.15
2022-08-24T01:20:41.758Z,21.15
2022-08-24T01:21:41.761Z,21.11
2022-08-24T01:22:41.740Z,21.09
2022-08-24T01:23:41.750Z,21.08
2022-08-24T01:24:41.724Z,21.06
2022-08-24T01:25:41.709Z,21.06
2022-08-24T01:26:41.690Z,21.05
2022-08-24T01:27:41.705Z,21.03
2022-08-24T01:28:41.713Z,21.01
2022-08-24T01:29:41.657Z,21.00
2022-08-24T01:30:41.653Z,20.97
2022-08-24T01:31:41.704Z,20.96
2022-08-24T01:32:41.627Z,20.93
2022-08-24T01:33:41.643Z,20.90
2022-08-24T01:34:41.614Z,20.85
2022-08-24T01:35:41.598Z,20.82
2022-08-24T01:36:41.575Z,20.82
2022-08-24T01:37:41.584Z,20.78
2022-08-24T01:38:41.596Z,20.78
2022-08-24T01:39:41.591Z,20.75
2022-08-24T01:40:41.535Z,20.71
2022-08-24T01:41:41.543Z,20.71
2022-08-24T01:42:41.507Z,20.69
2022-08-24T01:43:41.520Z,20.64
2022-08-24T01:44:41.488Z,20.61
2022-08-24T01:45:41.474Z,20.60
2022-08-24T01:46:41.519Z,20.61
2022-08-24T01:47:41.452Z,20.61
2022-08-24T01:48:41.471Z,20.60
2022-08-24T01:49:41.429Z,20.58
2022-08-24T01:50:41.420Z,20.57
2022-08-24T01:51:41.404Z,20.56
2022-08-24T01:53:14.626Z,20.54
2022-08-24T01:53:41.423Z,20.50
2022-08-24T01:54:43.536Z,20.46
2022-08-24T01:55:41.363Z,20.46
2022-08-24T01:56:41.351Z,20.44
2022-08-24T01:57:41.337Z,20.42
2022-08-24T01:58:41.376Z,20.40
2022-08-24T01:59:41.350Z,20.40
2022-08-24T02:00:41.316Z,20.41
2022-08-24T02:01:41.424Z,20.41
2022-08-24T02:02:41.348Z,20.40
2022-08-24T02:03:41.300Z,20.37
2022-08-24T02:04:41.267Z,20.37
2022-08-24T02:05:41.266Z,20.37
2022-08-24T02:06:41.252Z,20.35
2022-08-24T02:07:41.224Z,20.34
2022-08-24T02:08:41.234Z,20.33
2022-08-24T02:09:41.240Z,20.31
2022-08-24T02:10:41.205Z,20.27
2022-08-24T02:11:41.191Z,20.23
2022-08-24T02:12:41.199Z,20.20
2022-08-24T02:13:41.193Z,20.17
2022-08-24T02:14:41.146Z,20.16
2022-08-24T02:15:41.191Z,20.13
2022-08-24T02:16:41.135Z,20.10
2022-08-24T02:17:41.122Z,20.10
2022-08-24T02:18:41.129Z,20.08
2022-08-24T02:19:41.092Z,20.08
2022-08-24T02:20:41.087Z,20.04
2022-08-24T02:21:41.075Z,20.04
2022-08-24T02:22:41.065Z,20.01
2022-08-24T02:23:41.080Z,20.01
2022-08-24T02:24:41.048Z,20.00
2022-08-24T02:25:41.037Z,19.97
2022-08-24T02:26:41.013Z,19.94
2022-08-24T02:27:41.029Z,19.92
2022-08-24T02:28:41.016Z,19.90
2022-08-24T02:29:40.989Z,19.87
2022-08-24T02:30:41.021Z,19.87
2022-08-24T02:31:40.981Z,19.83
2022-08-24T02:32:40.951Z,19.82
2022-08-24T02:33:40.969Z,19.79
2022-08-24T02:34:40.970Z,19.78
2022-08-24T02:35:40.949Z,19.75
2022-08-24T02:36:40.909Z,19.72
2022-08-24T02:37:43.506Z,19.70
2022-08-24T02:38:40.907Z,19.68
2022-08-24T02:39:40.886Z,19.64
2022-08-24T02:40:40.898Z,19.62
2022-08-24T02:41:40.857Z,19.60
2022-08-24T02:42:41.023Z,19.58
2022-08-24T02:43:40.870Z,19.57
2022-08-24T02:44:40.822Z,19.55
2022-08-24T02:45:40.814Z,19.57
2022-08-24T02:46:40.848Z,19.55
2022-08-24T02:47:40.796Z,19.58
2022-08-24T02:48:40.800Z,19.57
2022-08-24T02:49:40.773Z,19.57
2022-08-24T02:50:40.766Z,19.53
2022-08-24T02:51:44.028Z,19.52
2022-08-24T02:52:40.753Z,19.52
2022-08-24T02:53:40.746Z,19.52
2022-08-24T02:54:40.709Z,19.49
2022-08-24T02:55:40.732Z,19.47
2022-08-24T02:56:40.690Z,19.47
2022-08-24T02:57:40.698Z,19.47
2022-08-24T02:58:40.701Z,19.47
2022-08-24T02:59:40.703Z,19.47
2022-08-24T03:00:40.645Z,19.47
2022-08-24T03:01:40.673Z,19.49
2022-08-24T03:02:40.690Z,19.47
2022-08-24T03:03:40.647Z,19.46
2022-08-24T03:04:40.605Z,19.45
2022-08-24T03:05:40.616Z,19.45
2022-08-24T03:06:40.589Z,19.45
2022-08-24T03:07:40.572Z,19.46
2022-08-24T03:08:40.609Z,19.46
2022-08-24T03:09:40.566Z,19.46
2022-08-24T03:10:40.550Z,19.46
2022-08-24T03:11:40.569Z,19.43
2022-08-24T03:12:40.529Z,19.42
2022-08-24T03:13:40.543Z,19.43
2022-08-24T03:14:40.495Z,19.40
2022-08-24T03:15:40.573Z,19.39
2022-08-24T03:16:40.477Z,19.38
2022-08-24T03:17:41.129Z,19.34
2022-08-24T03:18:40.472Z,19.35
2022-08-24T03:19:40.441Z,19.35
2022-08-24T03:20:40.432Z,19.31
2022-08-24T03:21:40.428Z,19.31
2022-08-24T03:22:40.488Z,19.31
2022-08-24T03:23:40.427Z,19.30
2022-08-24T03:24:40.386Z,19.28
2022-08-24T03:25:40.372Z,19.25
2022-08-24T03:26:44.113Z,19.25
2022-08-24T03:27:40.368Z,19.23
2022-08-24T03:28:40.376Z,19.23
2022-08-24T03:29:40.333Z,19.21
2022-08-24T03:30:40.343Z,19.16
2022-08-24T03:31:40.316Z,19.15
2022-08-24T03:32:40.297Z,19.12
2022-08-24T03:33:40.319Z,19.10
2022-08-24T03:34:40.280Z,19.10
2022-08-24T03:35:40.268Z,19.10
2022-08-24T03:36:40.265Z,19.12
2022-08-24T03:37:40.256Z,19.12
2022-08-24T03:38:40.258Z,19.09
2022-08-24T03:39:40.234Z,19.07
2022-08-24T03:40:40.256Z,19.06
2022-08-24T03:41:40.198Z,19.05
2022-08-24T03:42:40.221Z,19.02
2022-08-24T03:43:40.203Z,19.01
2022-08-24T03:44:40.164Z,18.97
2022-08-24T03:45:40.216Z,18.99
2022-08-24T03:46:40.150Z,18.96
2022-08-24T03:47:40.139Z,18.96
2022-08-24T03:48:40.152Z,18.94
2022-08-24T03:49:40.109Z,18.93
2022-08-24T03:50:40.094Z,18.91
2022-08-24T03:51:40.124Z,18.91
2022-08-24T03:52:40.070Z,18.86
2022-08-24T03:53:42.368Z,18.84
2022-08-24T03:54:40.051Z,18.83
2022-08-24T03:55:40.034Z,18.79
2022-08-24T03:56:40.052Z,18.79
2022-08-24T03:57:40.023Z,18.78
2022-08-24T03:58:40.002Z,18.79
2022-08-24T03:59:46.394Z,18.79
2022-08-24T04:00:39.995Z,18.78
2022-08-24T04:01:40.008Z,18.75
2022-08-24T04:02:40.025Z,18.75
2022-08-24T04:03:39.954Z,18.74
2022-08-24T04:04:39.957Z,18.75
2022-08-24T04:05:39.935Z,18.76
2022-08-24T04:06:39.910Z,18.74
2022-08-24T04:07:39.925Z,18.74
2022-08-24T04:08:39.911Z,18.75
2022-08-24T04:09:39.891Z,18.74
2022-08-24T04:10:39.886Z,18.72
2022-08-24T04:11:41.494Z,18.74
2022-08-24T04:12:39.861Z,18.72
2022-08-24T04:13:39.860Z,18.72
2022-08-24T04:14:39.824Z,18.69
2022-08-24T04:15:39.821Z,18.69
2022-08-24T04:16:39.891Z,18.71
2022-08-24T04:17:39.791Z,18.68
2022-08-24T04:18:39.825Z,18.68
2022-08-24T04:19:39.767Z,18.68
2022-08-24T04:20:39.758Z,18.62
2022-08-24T04:21:39.759Z,18.60
2022-08-24T04:22:39.746Z,18.56
2022-08-24T04:23:47.031Z,18.57
2022-08-24T04:24:39.714Z,18.53
2022-08-24T04:25:39.700Z,18.51
2022-08-24T04:26:44.741Z,18.53
2022-08-24T04:27:39.678Z,18.53
2022-08-24T04:28:39.694Z,18.51
2022-08-24T04:29:39.654Z,18.49
2022-08-24T04:30:39.648Z,18.49
2022-08-24T04:31:39.722Z,18.49
2022-08-24T04:32:39.628Z,18.47
2022-08-24T04:33:39.606Z,18.47
2022-08-24T04:34:39.620Z,18.47
2022-08-24T04:35:39.585Z,18.47
2022-08-24T04:36:39.576Z,18.47
2022-08-24T04:37:39.564Z,18.47
2022-08-24T04:38:39.556Z,18.46
2022-08-24T04:39:39.645Z,18.47
2022-08-24T04:40:39.540Z,18.46
2022-08-24T04:41:39.516Z,18.49
2022-08-24T04:42:39.522Z,18.47
2022-08-24T04:43:39.517Z,18.47
2022-08-24T04:44:39.489Z,18.44
2022-08-24T04:45:39.557Z,18.42
2022-08-24T04:46:39.470Z,18.44
2022-08-24T04:47:39.478Z,18.44
2022-08-24T04:48:39.444Z,18.44
2022-08-24T04:49:39.424Z,18.47
2022-08-24T04:50:39.448Z,18.49
2022-08-24T04:51:39.405Z,18.50
2022-08-24T04:52:39.399Z,18.53
2022-08-24T04:53:39.385Z,18.57
2022-08-24T04:54:39.379Z,18.62
2022-08-24T04:55:39.359Z,18.64
2022-08-24T04:56:39.372Z,18.65
2022-08-24T04:57:39.346Z,18.69
2022-08-24T04:58:39.326Z,18.71
2022-08-24T04:59:39.315Z,18.74
2022-08-24T05:00:39.369Z,18.75
2022-08-24T05:01:39.317Z,18.75
2022-08-24T05:02:44.577Z,18.76
2022-08-24T05:03:39.294Z,18.76
2022-08-24T05:04:39.283Z,18.78
2022-08-24T05:05:39.247Z,18.79
2022-08-24T05:06:39.241Z,18.83
2022-08-24T05:07:39.242Z,18.86
2022-08-24T05:08:39.212Z,18.87
2022-08-24T05:09:39.215Z,18.90
2022-08-24T05:10:39.204Z,18.91
2022-08-24T05:11:39.180Z,18.93
2022-08-24T05:12:39.209Z,18.96
2022-08-24T05:13:39.181Z,18.97
2022-08-24T05:14:39.151Z,18.99
2022-08-24T05:15:39.136Z,19.05
2022-08-24T05:16:39.205Z,19.06
2022-08-24T05:17:39.120Z,19.09
2022-08-24T05:18:39.127Z,19.12
2022-08-24T05:19:39.128Z,19.13
2022-08-24T05:20:39.083Z,19.15
2022-08-24T05:21:40.112Z,19.17
2022-08-24T05:22:39.073Z,19.23
2022-08-24T05:23:39.076Z,19.25
2022-08-24T05:24:39.054Z,19.27
2022-08-24T05:25:39.025Z,19.30
2022-08-24T05:26:39.011Z,19.34
2022-08-24T05:27:39.009Z,19.38
2022-08-24T05:28:38.992Z,19.42
2022-08-24T05:29:39.027Z,19.43
2022-08-24T05:30:42.527Z,19.46
2022-08-24T05:31:38.975Z,19.49
2022-08-24T05:32:38.964Z,19.52
2022-08-24T05:33:38.936Z,19.55
2022-08-24T05:34:38.951Z,19.60
2022-08-24T05:35:38.920Z,19.62
2022-08-24T05:36:38.896Z,19.65
2022-08-24T05:37:38.893Z,19.67
2022-08-24T05:38:38.887Z,19.70
2022-08-24T05:39:38.877Z,19.71
2022-08-24T05:40:38.878Z,19.75
2022-08-24T05:41:38.852Z,19.79
2022-08-24T05:42:38.867Z,19.80
2022-08-24T05:43:38.826Z,19.86
2022-08-24T05:44:38.808Z,19.87
2022-08-24T05:45:38.848Z,19.90
2022-08-24T05:46:38.819Z,19.94
2022-08-24T05:47:38.779Z,19.97
2022-08-24T05:48:38.771Z,20.00
2022-08-24T05:49:41.571Z,20.04
2022-08-24T05:50:38.744Z,20.07
2022-08-24T05:51:38.750Z,20.10
2022-08-24T05:52:38.721Z,20.13
2022-08-24T05:53:38.719Z,20.17
2022-08-24T05:54:38.709Z,20.20
2022-08-24T05:55:38.720Z,20.25
2022-08-24T05:56:38.715Z,20.27
2022-08-24T05:57:38.670Z,20.31
2022-08-24T05:58:38.667Z,20.35
2022-08-24T05:59:38.651Z,20.40
2022-08-24T06:00:38.644Z,20.41
2022-08-24T06:01:42.176Z,20.46
2022-08-24T06:02:38.700Z,20.51
2022-08-24T06:03:38.607Z,20.56
2022-08-24T06:04:38.629Z,20.61
2022-08-24T06:05:38.584Z,20.66
2022-08-24T06:06:38.582Z,20.71
2022-08-24T06:07:38.586Z,20.73
2022-08-24T06:08:41.473Z,20.78
2022-08-24T06:09:38.550Z,20.82
2022-08-24T06:10:38.564Z,20.87
2022-08-24T06:11:38.530Z,20.90
2022-08-24T06:12:38.518Z,20.96
2022-08-24T06:13:38.522Z,21.00
2022-08-24T06:14:38.516Z,21.06
2022-08-24T06:15:38.513Z,21.12
2022-08-24T06:16:38.537Z,21.16
2022-08-24T06:17:38.500Z,21.21
2022-08-24T06:18:38.481Z,21.24
2022-08-24T06:19:38.432Z,21.30
2022-08-24T06:20:38.434Z,21.33
2022-08-24T06:21:38.408Z,21.37
2022-08-24T06:22:38.402Z,21.40
2022-08-24T06:23:38.385Z,21.42
2022-08-24T06:24:38.406Z,21.48
2022-08-24T06:25:38.374Z,21.53
2022-08-24T06:26:38.366Z,21.59
2022-08-24T06:27:38.342Z,21.64
2022-08-24T06:28:38.380Z,21.71
2022-08-24T06:29:38.340Z,21.75
2022-08-24T06:30:38.311Z,21.74
2022-08-24T06:31:39.850Z,21.81
2022-08-24T06:32:38.295Z,21.86
2022-08-24T06:33:38.287Z,21.90
2022-08-24T06:34:38.287Z,21.96
2022-08-24T06:35:38.258Z,22.01
2022-08-24T06:36:40.025Z,22.06
2022-08-24T06:37:38.242Z,22.12
2022-08-24T06:38:38.222Z,22.19
2022-08-24T06:39:38.250Z,22.23
2022-08-24T06:40:38.204Z,22.29
2022-08-24T06:41:38.194Z,22.33
2022-08-24T06:42:38.177Z,22.35
2022-08-24T06:43:38.168Z,22.39
2022-08-24T06:44:38.176Z,22.44
2022-08-24T06:45:38.146Z,22.48
2022-08-24T06:46:38.206Z,22.51
2022-08-24T06:47:38.192Z,22.54
2022-08-24T06:48:38.107Z,22.61
2022-08-24T06:49:38.094Z,22.64
2022-08-24T06:50:38.110Z,22.70
2022-08-24T06:51:38.082Z,22.76
2022-08-24T06:52:38.056Z,22.82
2022-08-24T06:53:38.078Z,22.85
2022-08-24T06:54:38.036Z,22.86
2022-08-24T06:55:38.052Z,22.91
2022-08-24T06:56:38.034Z,22.94
2022-08-24T06:57:38.018Z,22.99
2022-08-24T06:58:38.020Z,23.04
2022-08-24T06:59:37.985Z,23.09
2022-08-24T07:00:37.991Z,23.15
2022-08-24T07:01:38.071Z,23.21
2022-08-24T07:02:38.096Z,23.22
2022-08-24T07:03:37.951Z,23.29
2022-08-24T07:04:37.930Z,23.37
2022-08-24T07:05:37.947Z,23.34
2022-08-24T07:06:37.913Z,23.38
2022-08-24T07:07:37.897Z,23.42
2022-08-24T07:08:37.902Z,23.50
2022-08-24T07:09:37.866Z,23.59
2022-08-24T07:10:37.890Z,23.59
2022-08-24T07:11:37.859Z,23.59
2022-08-24T07:12:37.846Z,23.68
2022-08-24T07:13:37.832Z,23.69
2022-08-24T07:14:37.836Z,23.74
2022-08-24T07:15:37.866Z,23.77
2022-08-24T07:16:37.810Z,23.82
2022-08-24T07:17:37.815Z,23.82
2022-08-24T07:18:37.776Z,23.87
2022-08-24T07:19:37.768Z,23.96
2022-08-24T07:20:37.785Z,24.04
2022-08-24T07:21:37.770Z,24.02
2022-08-24T07:22:37.730Z,24.04
2022-08-24T07:23:42.397Z,24.11
2022-08-24T07:24:37.755Z,24.18
2022-08-24T07:25:37.742Z,24.24
2022-08-24T07:26:37.729Z,24.33
2022-08-24T07:27:37.672Z,24.42
2022-08-24T07:28:37.666Z,24.51
2022-08-24T07:29:48.817Z,24.46
2022-08-24T07:30:37.647Z,24.42
2022-08-24T07:31:37.720Z,24.48
2022-08-24T07:32:37.632Z,24.53
2022-08-24T07:33:37.616Z,24.56
2022-08-24T07:34:37.604Z,24.66
2022-08-24T07:35:37.596Z,24.64
2022-08-24T07:36:42.173Z,24.60
2022-08-24T07:37:41.391Z,24.60
2022-08-24T07:38:37.602Z,24.67
2022-08-24T07:39:37.541Z,24.67
2022-08-24T07:41:01.575Z,24.74
2022-08-24T07:41:56.233Z,24.84
2022-08-24T07:42:37.533Z,24.92
2022-08-24T07:43:40.111Z,24.93
2022-08-24T07:44:37.498Z,25.05
2022-08-24T07:45:37.479Z,25.16
2022-08-24T07:46:37.536Z,25.22
2022-08-24T07:47:40.669Z,25.29
2022-08-24T07:48:37.466Z,25.36
2022-08-24T07:49:39.524Z,25.45
2022-08-24T07:50:37.441Z,25.57
2022-08-24T07:51:37.412Z,25.66
2022-08-24T07:52:37.423Z,25.74
2022-08-24T07:53:52.678Z,25.83
2022-08-24T07:54:37.389Z,25.94
2022-08-24T07:55:40.887Z,26.01
2022-08-24T07:56:37.408Z,26.06
2022-08-24T07:57:37.366Z,26.08
2022-08-24T07:58:37.337Z,26.09
2022-08-24T07:59:37.332Z,26.13
2022-08-24T08:00:37.320Z,26.09
2022-08-24T08:01:37.331Z,26.13
2022-08-24T08:02:37.344Z,26.19
2022-08-24T08:03:37.300Z,26.12
2022-08-24T08:04:37.274Z,26.04
2022-08-24T08:05:37.274Z,26.12
2022-08-24T08:06:37.282Z,26.17
2022-08-24T08:07:37.244Z,26.23
2022-08-24T08:08:37.253Z,26.21
2022-08-24T08:09:37.216Z,26.23
2022-08-24T08:10:37.214Z,26.23
2022-08-24T08:11:37.194Z,26.27
2022-08-24T08:12:37.191Z,26.24
2022-08-24T08:13:37.282Z,26.32
2022-08-24T08:14:37.161Z,26.36
2022-08-24T08:15:37.236Z,26.38
2022-08-24T08:16:37.160Z,26.36
2022-08-24T08:17:37.161Z,26.38
2022-08-24T08:18:37.148Z,26.36
2022-08-24T08:19:37.108Z,26.34
2022-08-24T08:20:37.103Z,26.32
2022-08-24T08:21:37.088Z,26.39
2022-08-24T08:22:37.080Z,26.42
2022-08-24T08:23:37.063Z,26.46
2022-08-24T08:24:37.080Z,26.47
2022-08-24T08:25:37.053Z,26.53
2022-08-24T08:26:37.046Z,26.61
2022-08-24T08:27:37.076Z,26.72
2022-08-24T08:28:37.667Z,26.84
2022-08-24T08:29:37.029Z,26.93
2022-08-24T08:30:37.059Z,27.01
2022-08-24T08:31:37.059Z,27.09
2022-08-24T08:32:36.977Z,27.20
2022-08-24T08:33:36.970Z,27.25
2022-08-24T08:34:36.977Z,27.30
2022-08-24T08:35:36.945Z,27.35
2022-08-24T08:36:36.934Z,27.42
2022-08-24T08:38:36.913Z,27.42
2022-08-24T08:39:36.926Z,27.33
2022-08-24T08:40:36.895Z,27.25
2022-08-24T08:41:36.891Z,27.20
2022-08-24T08:42:36.878Z,27.21
2022-08-24T08:43:36.870Z,27.24
2022-08-24T08:44:36.880Z,27.24
2022-08-24T08:45:36.837Z,27.27
2022-08-24T08:46:40.698Z,27.33
2022-08-24T08:47:36.823Z,27.39
2022-08-24T08:48:36.806Z,27.46
2022-08-24T08:49:36.827Z,27.55
2022-08-24T08:50:36.825Z,27.62
2022-08-24T08:51:36.781Z,27.69
2022-08-24T08:52:36.766Z,27.77
2022-08-24T08:53:36.759Z,27.76
2022-08-24T08:54:36.739Z,27.80
2022-08-24T08:55:36.748Z,27.74
2022-08-24T08:56:36.733Z,27.83
2022-08-24T08:57:36.754Z,27.93
2022-08-24T08:58:36.705Z,27.99
2022-08-24T08:59:36.694Z,27.91
2022-08-24T09:00:36.700Z,27.93
2022-08-24T09:01:44.287Z,27.96
2022-08-24T09:02:36.662Z,28.01
2022-08-24T09:03:36.676Z,28.11
2022-08-24T09:04:36.656Z,28.20
2022-08-24T09:05:36.672Z,28.28
2022-08-24T09:06:36.605Z,28.42
2022-08-24T09:07:36.601Z,28.35
2022-08-24T09:08:36.589Z,28.40
2022-08-24T09:09:36.584Z,28.39
2022-08-24T09:10:36.565Z,28.52
2022-08-24T09:11:36.612Z,28.69
2022-08-24T09:12:36.544Z,28.83
2022-08-24T09:13:36.538Z,28.91
2022-08-24T09:14:36.525Z,28.98
2022-08-24T09:15:36.544Z,29.07
2022-08-24T09:16:36.582Z,29.11
2022-08-24T09:17:36.499Z,29.12
2022-08-24T09:18:36.486Z,28.98
2022-08-24T09:19:36.482Z,28.91
2022-08-24T09:20:36.489Z,28.98
2022-08-24T09:21:36.454Z,29.08
2022-08-24T09:22:36.441Z,29.18
2022-08-24T09:23:36.437Z,29.23
2022-08-24T09:24:36.418Z,29.18
2022-08-24T09:25:36.440Z,29.21
2022-08-24T09:26:36.481Z,29.27
2022-08-24T09:27:36.386Z,29.26
2022-08-24T09:28:36.397Z,29.32
2022-08-24T09:29:36.377Z,29.41
2022-08-24T09:30:36.409Z,29.48
2022-08-24T09:31:36.419Z,29.62
2022-08-24T09:32:36.351Z,29.69
2022-08-24T09:33:36.375Z,29.74
2022-08-24T09:34:36.347Z,29.79
2022-08-24T09:35:36.328Z,29.88
2022-08-24T09:36:36.324Z,29.97
2022-08-24T09:37:36.785Z,30.07
2022-08-24T09:38:36.279Z,30.19
2022-08-24T09:39:36.296Z,30.18
2022-08-24T09:40:36.300Z,30.19
2022-08-24T09:41:36.246Z,30.23
2022-08-24T09:42:36.245Z,30.32
2022-08-24T09:43:36.220Z,30.44
2022-08-24T09:44:36.217Z,30.48
2022-08-24T09:45:36.290Z,30.28
2022-08-24T09:46:36.220Z,30.10
2022-08-24T09:47:36.230Z,29.89
2022-08-24T09:48:36.165Z,29.81
2022-08-24T09:49:36.164Z,29.82
2022-08-24T09:50:36.178Z,29.69
2022-08-24T09:51:36.200Z,29.66
2022-08-24T09:52:36.136Z,29.82
2022-08-24T09:53:36.114Z,30.00
2022-08-24T09:54:36.157Z,29.97
2022-08-24T09:55:36.128Z,29.78
2022-08-24T09:56:36.081Z,29.69
2022-08-24T09:57:59.491Z,29.67
2022-08-24T09:58:36.100Z,29.84
2022-08-24T09:59:36.039Z,30.03
2022-08-24T10:00:36.026Z,30.16
2022-08-24T10:01:36.144Z,30.29
2022-08-24T10:02:36.070Z,30.45
2022-08-24T10:03:38.520Z,30.60
2022-08-24T10:04:36.156Z,30.73
2022-08-24T10:05:36.891Z,30.88
2022-08-24T10:06:35.990Z,31.01
2022-08-24T10:07:35.990Z,31.12
2022-08-24T10:08:35.937Z,31.20
2022-08-24T10:09:35.940Z,31.23
2022-08-24T10:10:35.932Z,31.31
2022-08-24T10:11:35.925Z,31.27
2022-08-24T10:12:35.914Z,31.22
2022-08-24T10:13:35.889Z,31.04
2022-08-24T10:14:35.871Z,30.76
2022-08-24T10:15:35.888Z,30.53
2022-08-24T10:16:35.876Z,30.16
2022-08-24T10:17:35.856Z,30.18
2022-08-24T10:18:35.830Z,30.42
2022-08-24T10:19:35.830Z,30.67
2022-08-24T10:20:35.808Z,30.86
2022-08-24T10:21:35.835Z,30.86
2022-08-24T10:22:35.787Z,30.88
2022-08-24T10:23:35.802Z,30.98
2022-08-24T10:24:35.782Z,31.10
2022-08-24T10:25:35.760Z,31.13
2022-08-24T10:26:35.749Z,31.19
2022-08-24T10:27:35.763Z,31.35
2022-08-24T10:28:35.737Z,31.45
2022-08-24T10:29:35.705Z,31.54
2022-08-24T10:30:35.725Z,31.69
2022-08-24T10:31:35.755Z,31.76
2022-08-24T10:32:35.718Z,31.57
2022-08-24T10:33:35.704Z,31.56
2022-08-24T10:34:35.662Z,31.60
2022-08-24T10:35:35.641Z,31.72
2022-08-24T10:36:35.656Z,31.46
2022-08-24T10:37:35.625Z,31.56
2022-08-24T10:38:35.675Z,31.74
2022-08-24T10:39:35.605Z,31.60
2022-08-24T10:40:35.645Z,31.68
2022-08-24T10:41:38.747Z,31.85
2022-08-24T10:42:35.589Z,31.88
2022-08-24T10:43:35.582Z,32.03
2022-08-24T10:44:35.576Z,32.17
2022-08-24T10:45:35.555Z,32.29
2022-08-24T10:46:35.537Z,32.36
2022-08-24T10:47:35.538Z,32.47
2022-08-24T10:48:35.528Z,32.41
2022-08-24T10:49:35.503Z,32.50
2022-08-24T10:50:35.531Z,32.65
2022-08-24T10:51:35.473Z,32.76
2022-08-24T10:52:35.482Z,32.78
2022-08-24T10:53:35.451Z,32.88
2022-08-24T10:54:35.479Z,32.95
2022-08-24T10:55:35.447Z,33.00
2022-08-24T10:56:35.426Z,33.03
2022-08-24T10:57:35.417Z,33.07
2022-08-24T10:58:35.413Z,33.07
2022-08-24T10:59:35.385Z,33.03
2022-08-24T11:00:35.408Z,33.07
2022-08-24T11:01:35.415Z,32.58
2022-08-24T11:02:35.394Z,32.50
2022-08-24T11:03:35.348Z,32.21
2022-08-24T11:04:35.342Z,32.24
2022-08-24T11:05:35.323Z,32.35
2022-08-24T11:06:35.352Z,32.53
2022-08-24T11:07:35.326Z,32.69
2022-08-24T11:08:35.302Z,32.88
2022-08-24T11:09:35.313Z,33.00
2022-08-24T11:10:35.287Z,33.17
2022-08-24T11:11:35.266Z,33.38
2022-08-24T11:12:35.271Z,33.53
2022-08-24T11:13:35.240Z,33.56
2022-08-24T11:14:35.235Z,33.68
2022-08-24T11:15:35.256Z,33.68
2022-08-24T11:16:35.341Z,33.71
2022-08-24T11:17:35.216Z,33.47
2022-08-24T11:18:35.198Z,33.21
2022-08-24T11:19:35.191Z,33.21
2022-08-24T11:20:35.178Z,33.18
2022-08-24T11:21:35.172Z,33.21
2022-08-24T11:22:35.139Z,33.17
2022-08-24T11:23:35.146Z,33.09
2022-08-24T11:24:35.133Z,32.93
2022-08-24T11:25:35.152Z,32.84
2022-08-24T11:26:35.101Z,33.00
2022-08-24T11:27:35.111Z,32.95
2022-08-24T11:28:35.105Z,32.95
2022-08-24T11:29:35.083Z,32.95
2022-08-24T11:30:35.086Z,32.95
2022-08-24T11:31:35.929Z,33.14
2022-08-24T11:32:35.035Z,33.40
2022-08-24T11:33:35.028Z,33.62
2022-08-24T11:34:35.048Z,33.81
2022-08-24T11:35:35.017Z,33.79
2022-08-24T11:36:35.023Z,33.78
2022-08-24T11:37:34.995Z,33.79
2022-08-24T11:38:34.983Z,33.82
2022-08-24T11:39:34.998Z,33.66
2022-08-24T11:40:34.977Z,33.50
2022-08-24T11:41:34.955Z,33.57
2022-08-24T11:42:34.933Z,33.63
2022-08-24T11:43:34.931Z,33.74
2022-08-24T11:44:34.942Z,33.81
2022-08-24T11:45:34.931Z,33.57
2022-08-24T11:46:34.974Z,33.56
2022-08-24T11:47:34.897Z,33.56
2022-08-24T11:48:34.881Z,33.56
2022-08-24T11:49:34.910Z,33.66
2022-08-24T11:50:34.881Z,33.72
2022-08-24T11:51:34.851Z,33.74
2022-08-24T11:52:34.827Z,33.53
2022-08-24T11:54:34.826Z,33.55
2022-08-24T11:55:47.372Z,33.74
2022-08-24T11:56:34.802Z,33.87
2022-08-24T11:57:34.783Z,34.05
2022-08-24T11:58:34.788Z,34.23
2022-08-24T11:59:34.827Z,34.27
2022-08-24T12:00:34.781Z,34.33
2022-08-24T12:01:34.826Z,34.42
2022-08-24T12:02:34.923Z,34.46
2022-08-24T12:03:34.732Z,34.09
2022-08-24T12:04:34.709Z,34.06
2022-08-24T12:05:34.707Z,34.15
2022-08-24T12:06:34.711Z,33.89
2022-08-24T12:07:34.694Z,33.78
2022-08-24T12:08:34.673Z,33.89
2022-08-24T12:09:34.678Z,34.01
2022-08-24T12:10:34.664Z,34.23
2022-08-24T12:11:34.640Z,34.40
2022-08-24T12:12:34.621Z,34.56
2022-08-24T12:13:34.628Z,34.71
2022-08-24T12:14:34.617Z,34.91
2022-08-24T12:15:34.628Z,34.93
2022-08-24T12:16:34.630Z,35.06
2022-08-24T12:17:34.569Z,35.17
2022-08-24T12:18:34.557Z,35.24
2022-08-24T12:19:35.623Z,35.34
2022-08-24T12:20:34.559Z,35.20
2022-08-24T12:21:34.534Z,34.80
2022-08-24T12:22:34.513Z,34.71
2022-08-24T12:23:34.522Z,34.72
2022-08-24T12:24:34.498Z,34.61
2022-08-24T12:25:34.529Z,34.69
2022-08-24T12:26:34.492Z,34.81
2022-08-24T12:27:34.468Z,34.93
2022-08-24T12:28:34.478Z,34.84
2022-08-24T12:29:34.497Z,34.64
2022-08-24T12:30:34.449Z,34.73
2022-08-24T12:31:34.454Z,34.90
2022-08-24T12:32:34.414Z,34.94
2022-08-24T12:33:37.573Z,34.90
2022-08-24T12:34:34.394Z,34.65
2022-08-24T12:35:34.422Z,34.14
2022-08-24T12:36:34.370Z,34.01
2022-08-24T12:37:34.364Z,34.08
2022-08-24T12:38:34.377Z,34.15
2022-08-24T12:39:34.420Z,34.38
2022-08-24T12:40:34.346Z,34.28
2022-08-24T12:41:34.340Z,34.18
2022-08-24T12:42:34.321Z,34.30
2022-08-24T12:43:34.294Z,34.24
2022-08-24T12:44:34.326Z,34.15
2022-08-24T12:45:34.317Z,34.24
2022-08-24T12:46:34.321Z,34.48
2022-08-24T12:47:34.274Z,34.65
2022-08-24T12:48:34.243Z,34.88
2022-08-24T12:49:34.242Z,35.05
2022-08-24T12:50:34.263Z,35.27
2022-08-24T12:51:34.236Z,35.05
2022-08-24T12:52:34.209Z,34.60
2022-08-24T12:53:34.214Z,34.27
2022-08-24T12:54:34.189Z,34.00